createdAt,value
2023-03-03T00:01:32.890Z,55.00
2023-03-03T00:04:00.046Z,56.37
2023-03-03T00:06:27.023Z,52.33
2023-03-03T00:08:53.836Z,55.17
2023-03-03T00:11:20.606Z,54.30
2023-03-03T00:13:50.475Z,55.57
2023-03-03T00:16:35.564Z,52.30
2023-03-03T00:19:02.392Z,51.97
2023-03-03T00:21:32.356Z,49.47
2023-03-03T00:24:14.233Z,51.13
2023-03-03T00:26:50.390Z,49.97
2023-03-03T00:29:35.960Z,52.93
2023-03-03T00:32:15.013Z,50.03
2023-03-03T00:34:43.624Z,49.23
2023-03-03T00:37:22.572Z,48.90
2023-03-03T00:39:49.389Z,52.50
2023-03-03T00:42:18.331Z,52.43
2023-03-03T00:44:48.733Z,47.93
2023-03-03T00:47:32.483Z,54.93
2023-03-03T00:50:27.664Z,51.17
2023-03-03T00:53:06.539Z,49.13
2023-03-03T00:55:34.614Z,47.03
2023-03-03T00:58:01.404Z,55.43
2023-03-03T01:00:28.687Z,67.00
2023-03-03T01:02:55.441Z,61.87
2023-03-03T01:05:22.486Z,53.33
2023-03-03T01:07:49.337Z,51.93
2023-03-03T01:10:16.235Z,49.50
2023-03-03T01:12:43.210Z,48.50
2023-03-03T01:15:12.564Z,49.13
2023-03-03T01:17:40.143Z,49.63
2023-03-03T01:20:14.172Z,49.47
2023-03-03T01:22:41.292Z,46.50
2023-03-03T01:25:09.106Z,47.37
2023-03-03T01:27:36.932Z,48.60
2023-03-03T01:30:07.012Z,46.53
2023-03-03T01:32:33.958Z,48.53
2023-03-03T01:35:00.845Z,49.83
2023-03-03T01:37:27.575Z,47.63
2023-03-03T01:39:55.357Z,49.80
2023-03-03T01:42:22.742Z,48.00
2023-03-03T01:45:13.577Z,47.67
2023-03-03T01:47:51.962Z,49.33
2023-03-03T01:50:45.744Z,50.30
2023-03-03T01:53:50.036Z,49.37
2023-03-03T01:56:16.995Z,48.10
2023-03-03T01:59:01.396Z,45.63
2023-03-03T02:01:29.908Z,43.90
2023-03-03T02:03:57.342Z,45.73
2023-03-03T02:06:28.637Z,43.57
2023-03-03T02:09:20.790Z,45.43
2023-03-03T02:11:51.169Z,44.97
2023-03-03T02:14:18.055Z,42.57
2023-03-03T02:16:45.210Z,44.27
2023-03-03T02:19:46.460Z,40.80
2023-03-03T02:22:18.044Z,42.63
2023-03-03T02:24:53.415Z,43.83
2023-03-03T02:27:20.420Z,45.87
2023-03-03T02:29:47.248Z,45.13
2023-03-03T02:32:14.097Z,44.10
2023-03-03T02:34:52.399Z,48.07
2023-03-03T02:37:20.373Z,44.27
2023-03-03T02:39:47.330Z,44.57
2023-03-03T02:42:20.016Z,44.60
2023-03-03T02:44:46.862Z,43.07
2023-03-03T02:47:14.125Z,44.50
2023-03-03T02:49:41.071Z,46.07
2023-03-03T02:52:12.480Z,42.90
2023-03-03T02:54:39.403Z,44.60
2023-03-03T02:57:06.612Z,43.60
2023-03-03T02:59:33.554Z,44.87
2023-03-03T03:02:00.496Z,41.73
2023-03-03T03:04:28.347Z,41.00
2023-03-03T03:06:56.228Z,41.07
2023-03-03T03:09:25.122Z,42.80
2023-03-03T03:11:52.375Z,41.50
2023-03-03T03:14:19.342Z,41.20
2023-03-03T03:16:46.099Z,41.43
2023-03-03T03:19:12.963Z,43.30
2023-03-03T03:21:39.731Z,41.63
2023-03-03T03:24:06.893Z,45.80
2023-03-03T03:26:33.689Z,42.23
2023-03-03T03:29:00.533Z,43.47
2023-03-03T03:31:27.603Z,41.27
2023-03-03T03:33:54.405Z,44.53
2023-03-03T03:36:21.291Z,42.90
2023-03-03T03:38:48.032Z,43.83
2023-03-03T03:41:14.834Z,42.90
2023-03-03T03:43:41.669Z,41.60
2023-03-03T03:46:08.702Z,44.50
2023-03-03T03:48:35.888Z,44.47
2023-03-03T03:51:03.265Z,44.17
2023-03-03T03:53:31.254Z,43.13
2023-03-03T03:55:58.015Z,41.73
2023-03-03T03:58:24.854Z,41.23
2023-03-03T04:00:51.653Z,42.80
2023-03-03T04:03:18.593Z,41.03
2023-03-03T04:05:45.663Z,42.30
2023-03-03T04:08:12.511Z,39.67
2023-03-03T04:10:39.369Z,39.77
2023-03-03T04:13:06.136Z,44.27
2023-03-03T04:15:32.953Z,40.67
2023-03-03T04:18:02.691Z,40.60
2023-03-03T04:20:29.528Z,42.50
2023-03-03T04:22:57.241Z,41.23
2023-03-03T04:25:24.424Z,39.97
2023-03-03T04:27:52.933Z,42.17
2023-03-03T04:30:20.043Z,40.77
2023-03-03T04:32:47.606Z,38.73
2023-03-03T04:35:14.351Z,41.40
2023-03-03T04:37:41.166Z,38.93
2023-03-03T04:40:09.380Z,39.77
2023-03-03T04:42:36.515Z,44.97
2023-03-03T04:45:04.511Z,42.83
2023-03-03T04:47:32.758Z,40.77
2023-03-03T04:49:59.890Z,43.70
2023-03-03T04:52:26.702Z,40.73
2023-03-03T04:54:53.457Z,42.53
2023-03-03T04:57:20.181Z,43.17
2023-03-03T04:59:47.390Z,42.70
2023-03-03T05:02:14.817Z,43.77
2023-03-03T05:04:41.655Z,41.93
2023-03-03T05:07:08.601Z,39.03
2023-03-03T05:09:35.665Z,42.67
2023-03-03T05:12:02.421Z,42.70
2023-03-03T05:14:29.161Z,43.37
2023-03-03T05:16:55.950Z,45.67
2023-03-03T05:19:22.820Z,45.10
2023-03-03T05:21:49.622Z,43.40
2023-03-03T05:24:16.347Z,41.50
2023-03-03T05:26:43.200Z,45.03
2023-03-03T05:29:10.268Z,42.70
2023-03-03T05:31:37.106Z,42.83
2023-03-03T05:34:04.292Z,34.10
2023-03-03T05:36:32.456Z,39.63
2023-03-03T05:38:59.362Z,43.33
2023-03-03T05:41:26.209Z,41.43
2023-03-03T05:43:52.979Z,42.00
2023-03-03T05:46:19.728Z,42.20
2023-03-03T05:48:47.208Z,41.63
2023-03-03T05:51:14.332Z,41.43
2023-03-03T05:53:41.270Z,42.90
2023-03-03T05:56:08.064Z,41.33
2023-03-03T05:58:34.845Z,40.50
2023-03-03T06:01:01.721Z,36.73
2023-03-03T06:03:28.659Z,36.27
2023-03-03T06:05:55.456Z,37.40
2023-03-03T06:08:22.264Z,35.87
2023-03-03T06:10:49.091Z,38.43
2023-03-03T06:13:16.334Z,35.83
2023-03-03T06:15:43.382Z,34.67
2023-03-03T06:18:10.343Z,36.70
2023-03-03T06:20:38.641Z,30.57
2023-03-03T06:23:05.979Z,30.13
2023-03-03T06:25:35.680Z,31.57
2023-03-03T06:28:03.231Z,33.07
2023-03-03T06:30:30.717Z,29.83
2023-03-03T06:32:57.613Z,28.87
2023-03-03T06:35:24.561Z,30.07
2023-03-03T06:37:51.751Z,33.57
2023-03-03T06:40:18.807Z,30.63
2023-03-03T06:42:45.956Z,31.27
2023-03-03T06:45:13.264Z,29.47
2023-03-03T06:47:40.153Z,29.50
2023-03-03T06:50:07.917Z,32.53
2023-03-03T06:52:34.827Z,32.00
2023-03-03T06:55:10.676Z,34.47
2023-03-03T06:57:37.916Z,30.77
2023-03-03T07:00:20.461Z,32.27
2023-03-03T07:02:53.870Z,33.30
2023-03-03T07:05:21.774Z,30.70
2023-03-03T07:07:48.557Z,31.33
2023-03-03T07:10:29.262Z,31.17
2023-03-03T07:13:02.901Z,34.23
2023-03-03T07:15:39.044Z,30.93
2023-03-03T07:18:32.687Z,33.10
2023-03-03T07:21:06.762Z,30.67
2023-03-03T07:23:42.858Z,28.47
2023-03-03T07:26:18.945Z,36.43
2023-03-03T07:28:55.792Z,30.83
2023-03-03T07:31:31.198Z,27.97
2023-03-03T07:34:00.552Z,30.37
2023-03-03T07:36:35.329Z,32.70
2023-03-03T07:39:23.582Z,33.07
2023-03-03T07:41:52.082Z,30.87
2023-03-03T07:44:24.812Z,30.10
2023-03-03T07:46:52.781Z,31.60
2023-03-03T07:49:23.450Z,31.43
2023-03-03T07:51:57.931Z,31.40
2023-03-03T07:54:50.745Z,29.13
2023-03-03T07:57:27.820Z,28.90
2023-03-03T08:00:02.788Z,31.60
2023-03-03T08:02:43.700Z,29.10
2023-03-03T08:05:30.422Z,26.43
2023-03-03T08:08:31.224Z,28.47
2023-03-03T08:11:03.154Z,26.10
2023-03-03T08:13:41.749Z,29.43
2023-03-03T08:16:11.621Z,28.67
2023-03-03T08:18:49.991Z,26.60
2023-03-03T08:21:22.459Z,26.83
2023-03-03T08:23:51.669Z,27.93
2023-03-03T08:26:20.129Z,24.10
2023-03-03T08:28:47.816Z,27.70
2023-03-03T08:31:22.535Z,28.27
2023-03-03T08:33:54.950Z,27.80
2023-03-03T08:36:21.819Z,28.33
2023-03-03T08:38:48.705Z,25.97
2023-03-03T08:41:15.735Z,22.90
2023-03-03T08:43:45.640Z,27.20
2023-03-03T08:46:12.674Z,21.57
2023-03-03T08:48:39.871Z,18.27
2023-03-03T08:51:06.776Z,23.93
2023-03-03T08:53:36.507Z,28.30
2023-03-03T08:56:05.060Z,27.83
2023-03-03T08:58:35.412Z,27.07
2023-03-03T09:01:02.652Z,27.30
2023-03-03T09:03:30.146Z,28.80
2023-03-03T09:05:57.121Z,19.33
2023-03-03T09:08:23.996Z,29.33
2023-03-03T09:10:50.859Z,26.93
2023-03-03T09:13:20.324Z,32.73
2023-03-03T09:15:48.990Z,24.67
2023-03-03T09:18:31.533Z,29.13
2023-03-03T09:20:58.648Z,32.57
2023-03-03T09:23:35.103Z,24.07
2023-03-03T09:26:30.697Z,18.87
2023-03-03T09:29:15.986Z,22.07
2023-03-03T09:31:45.775Z,18.33
2023-03-03T09:34:37.523Z,16.77
2023-03-03T09:37:23.179Z,16.80
2023-03-03T09:39:59.275Z,21.57
2023-03-03T09:43:07.489Z,25.40
2023-03-03T09:45:37.322Z,22.53
2023-03-03T09:48:20.400Z,23.47
2023-03-03T09:51:18.502Z,23.97
2023-03-03T09:54:03.521Z,23.50
2023-03-03T09:56:39.911Z,24.20
2023-03-03T09:59:34.153Z,20.43
2023-03-03T10:02:28.472Z,17.67
2023-03-03T10:05:35.550Z,19.67
2023-03-03T10:08:27.103Z,17.30
2023-03-03T10:11:13.513Z,13.97
2023-03-03T10:14:00.245Z,21.03
2023-03-03T10:17:09.788Z,22.73
2023-03-03T10:19:46.761Z,21.10
2023-03-03T10:22:41.409Z,18.60
2023-03-03T10:25:26.821Z,21.97
2023-03-03T10:27:59.991Z,19.37
2023-03-03T10:30:42.694Z,20.03
2023-03-03T10:33:23.054Z,21.83
2023-03-03T10:36:07.614Z,23.23
2023-03-03T10:38:49.532Z,25.23
2023-03-03T10:41:53.587Z,21.03
2023-03-03T10:44:45.502Z,23.93
2023-03-03T10:47:40.660Z,24.40
2023-03-03T10:50:22.847Z,17.77
2023-03-03T10:53:17.073Z,23.43
2023-03-03T10:56:09.703Z,26.17
2023-03-03T10:58:52.686Z,22.33
2023-03-03T11:01:45.189Z,16.67
2023-03-03T11:04:41.442Z,29.70
2023-03-03T11:07:17.268Z,17.17
2023-03-03T11:10:01.856Z,17.70
2023-03-03T11:12:58.703Z,22.50
2023-03-03T11:15:46.939Z,20.20
2023-03-03T11:18:33.961Z,20.67
2023-03-03T11:21:22.555Z,17.10
2023-03-03T11:23:53.398Z,18.17
2023-03-03T11:26:49.426Z,17.63
2023-03-03T11:29:36.759Z,15.73
2023-03-03T11:32:35.746Z,18.57
2023-03-03T11:35:27.293Z,15.20
2023-03-03T11:38:06.272Z,14.63
2023-03-03T11:40:50.484Z,17.27
2023-03-03T11:43:37.454Z,22.63
2023-03-03T11:46:13.147Z,22.00
2023-03-03T11:49:12.987Z,18.03
2023-03-03T11:52:04.526Z,16.37
2023-03-03T11:54:48.361Z,12.90
2023-03-03T11:57:15.242Z,11.47
2023-03-03T11:59:55.009Z,18.47
2023-03-03T12:02:30.530Z,17.13
2023-03-03T12:05:25.190Z,17.13
2023-03-03T12:08:03.661Z,17.30
2023-03-03T12:10:36.292Z,13.60
2023-03-03T12:13:20.316Z,14.47
2023-03-03T12:15:58.805Z,13.33
2023-03-03T12:18:45.496Z,12.20
2023-03-03T12:21:33.494Z,14.47
2023-03-03T12:24:27.055Z,13.67
2023-03-03T12:27:08.953Z,13.83
2023-03-03T12:30:10.793Z,12.43
2023-03-03T12:32:43.596Z,14.80
2023-03-03T12:35:28.789Z,12.73
2023-03-03T12:38:18.139Z,15.63
2023-03-03T12:41:09.990Z,16.43
2023-03-03T12:43:55.975Z,14.13
2023-03-03T12:46:44.308Z,17.17
2023-03-03T12:49:11.391Z,14.93
2023-03-03T12:51:50.466Z,19.93
2023-03-03T12:54:40.895Z,13.80
2023-03-03T12:57:24.093Z,14.30
2023-03-03T12:59:59.418Z,16.33
2023-03-03T13:02:35.086Z,14.83
2023-03-03T13:05:11.744Z,19.17
2023-03-03T13:08:15.726Z,20.03
2023-03-03T13:10:46.618Z,16.17
2023-03-03T13:13:27.741Z,19.33
2023-03-03T13:16:06.962Z,18.37
2023-03-03T13:18:53.598Z,11.07
2023-03-03T13:21:47.712Z,14.33
2023-03-03T13:24:26.885Z,12.03
2023-03-03T13:27:42.490Z,12.13
2023-03-03T13:30:09.605Z,17.73
2023-03-03T13:32:46.888Z,16.63
2023-03-03T13:35:35.559Z,14.20
2023-03-03T13:38:04.064Z,15.83
2023-03-03T13:40:42.890Z,13.67
2023-03-03T13:43:19.848Z,13.80
2023-03-03T13:45:58.675Z,13.27
2023-03-03T13:48:37.531Z,14.13
2023-03-03T13:51:43.141Z,13.50
2023-03-03T13:54:40.326Z,17.40
2023-03-03T13:57:26.206Z,8.10
2023-03-03T14:00:02.378Z,13.63
2023-03-03T14:02:59.223Z,14.20
2023-03-03T14:05:28.852Z,10.97
2023-03-03T14:08:02.820Z,17.90
2023-03-03T14:10:41.884Z,11.83
2023-03-03T14:13:12.242Z,11.77
2023-03-03T14:16:05.458Z,15.93
2023-03-03T14:18:44.644Z,14.03
2023-03-03T14:21:18.095Z,10.70
2023-03-03T14:24:11.494Z,11.50
2023-03-03T14:26:56.434Z,10.03
2023-03-03T14:29:26.176Z,11.73
2023-03-03T14:31:58.267Z,9.60
2023-03-03T14:35:02.488Z,8.80
2023-03-03T14:37:43.543Z,9.73
2023-03-03T14:40:16.429Z,16.03
2023-03-03T14:42:53.546Z,11.57
2023-03-03T14:45:39.790Z,14.03
2023-03-03T14:48:17.420Z,10.87
2023-03-03T14:50:53.829Z,16.17
2023-03-03T14:53:34.444Z,9.97
2023-03-03T14:56:25.178Z,11.17
2023-03-03T14:59:20.896Z,15.20
2023-03-03T15:01:47.848Z,16.43
2023-03-03T15:04:14.625Z,15.17
2023-03-03T15:06:47.831Z,10.90
2023-03-03T15:09:37.504Z,16.87
2023-03-03T15:12:19.304Z,8.80
2023-03-03T15:14:48.987Z,15.70
2023-03-03T15:17:39.839Z,14.30
2023-03-03T15:20:44.332Z,13.90
2023-03-03T15:23:20.124Z,13.80
2023-03-03T15:26:05.741Z,14.80
2023-03-03T15:29:14.771Z,12.90
2023-03-03T15:32:23.499Z,10.57
2023-03-03T15:35:13.533Z,15.43
2023-03-03T15:37:40.317Z,14.20
2023-03-03T15:40:17.470Z,17.07
2023-03-03T15:43:24.549Z,14.33
2023-03-03T15:46:16.144Z,14.83
2023-03-03T15:49:04.073Z,9.87
2023-03-03T15:52:03.191Z,11.53
2023-03-03T15:54:49.117Z,15.87
2023-03-03T15:57:45.170Z,22.23
2023-03-03T16:00:37.104Z,13.07
2023-03-03T16:03:35.507Z,16.13
2023-03-03T16:06:28.803Z,16.70
2023-03-03T16:09:07.472Z,15.67
2023-03-03T16:11:53.016Z,18.80
2023-03-03T16:14:20.047Z,15.90
2023-03-03T16:17:04.131Z,19.60
2023-03-03T16:19:45.553Z,18.27
2023-03-03T16:22:54.829Z,18.47
2023-03-03T16:25:59.724Z,17.07
2023-03-03T16:28:58.151Z,17.53
2023-03-03T16:31:36.358Z,16.03
2023-03-03T16:34:12.285Z,14.60
2023-03-03T16:37:16.258Z,17.07
2023-03-03T16:39:55.353Z,15.57
2023-03-03T16:42:39.865Z,16.77
2023-03-03T16:45:24.453Z,17.33
2023-03-03T16:48:08.269Z,10.40
2023-03-03T16:51:12.565Z,16.03
2023-03-03T16:53:54.238Z,15.20
2023-03-03T16:56:32.186Z,17.30
2023-03-03T16:59:01.850Z,20.60
2023-03-03T17:01:56.295Z,19.57
2023-03-03T17:05:05.138Z,18.17
2023-03-03T17:07:50.748Z,17.40
2023-03-03T17:10:28.448Z,17.37
2023-03-03T17:12:57.987Z,20.33
2023-03-03T17:15:38.538Z,19.57
2023-03-03T17:18:12.647Z,17.87
2023-03-03T17:20:58.561Z,18.63
2023-03-03T17:24:03.879Z,16.70
2023-03-03T17:26:30.741Z,12.13
2023-03-03T17:29:19.124Z,14.57
2023-03-03T17:32:08.700Z,16.07
2023-03-03T17:34:48.063Z,14.00
2023-03-03T17:37:32.402Z,16.70
2023-03-03T17:40:21.973Z,21.47
2023-03-03T17:43:28.935Z,17.63
2023-03-03T17:46:02.043Z,18.60
2023-03-03T17:48:50.093Z,18.67
2023-03-03T17:51:37.930Z,16.50
2023-03-03T17:54:19.072Z,16.53
2023-03-03T17:57:10.644Z,20.17
2023-03-03T18:00:03.009Z,19.37
2023-03-03T18:02:41.913Z,18.50
2023-03-03T18:05:20.527Z,19.67
2023-03-03T18:07:52.329Z,13.27
2023-03-03T18:10:43.961Z,19.97
2023-03-03T18:13:38.730Z,20.47
2023-03-03T18:16:24.105Z,17.50
2023-03-03T18:19:11.661Z,22.50
2023-03-03T18:21:57.278Z,22.23
2023-03-03T18:24:38.270Z,19.17
2023-03-03T18:27:23.706Z,19.17
2023-03-03T18:30:17.716Z,20.27
2023-03-03T18:32:56.584Z,19.40
2023-03-03T18:35:44.136Z,19.87
2023-03-03T18:38:16.944Z,18.47
2023-03-03T18:41:00.747Z,19.43
2023-03-03T18:43:45.954Z,16.07
2023-03-03T18:46:35.645Z,19.83
2023-03-03T18:49:10.698Z,16.87
2023-03-03T18:51:40.996Z,17.67
2023-03-03T18:54:14.298Z,20.97
2023-03-03T18:56:51.763Z,20.67
2023-03-03T18:59:30.698Z,20.43
2023-03-03T19:02:16.102Z,21.53
2023-03-03T19:04:56.584Z,20.67
2023-03-03T19:07:29.938Z,20.83
2023-03-03T19:09:58.276Z,20.23
2023-03-03T19:12:53.214Z,22.60
2023-03-03T19:15:33.705Z,21.67
2023-03-03T19:18:13.350Z,23.77
2023-03-03T19:20:44.177Z,21.90
2023-03-03T19:23:31.510Z,20.70
2023-03-03T19:26:20.137Z,22.30
2023-03-03T19:29:13.255Z,22.97
2023-03-03T19:32:05.016Z,23.53
2023-03-03T19:34:43.300Z,21.00
2023-03-03T19:37:43.730Z,20.93
2023-03-03T19:40:38.992Z,22.33
2023-03-03T19:43:08.760Z,24.10
2023-03-03T19:46:08.861Z,24.53
2023-03-03T19:48:54.410Z,21.43
2023-03-03T19:51:55.713Z,21.23
2023-03-03T19:54:39.148Z,21.00
2023-03-03T19:57:19.417Z,20.40
2023-03-03T19:59:52.180Z,21.60
2023-03-03T20:02:55.337Z,19.50
2023-03-03T20:05:47.098Z,19.73
2023-03-03T20:08:42.929Z,19.70
2023-03-03T20:11:13.017Z,20.63
2023-03-03T20:13:45.445Z,19.50
2023-03-03T20:16:23.842Z,18.53
2023-03-03T20:19:19.975Z,21.20
2023-03-03T20:22:06.032Z,21.33
2023-03-03T20:24:51.521Z,19.30
2023-03-03T20:27:36.093Z,20.93
2023-03-03T20:30:15.660Z,21.20
2023-03-03T20:33:23.511Z,20.83
2023-03-03T20:36:23.350Z,22.07
2023-03-03T20:39:04.733Z,23.07
2023-03-03T20:41:50.175Z,21.30
2023-03-03T20:45:01.847Z,22.73
2023-03-03T20:47:56.904Z,21.90
2023-03-03T20:50:23.617Z,21.83
2023-03-03T20:53:02.929Z,24.93
2023-03-03T20:55:43.937Z,21.57
2023-03-03T20:58:50.537Z,22.57
2023-03-03T21:01:31.342Z,21.10
2023-03-03T21:04:21.971Z,21.83
2023-03-03T21:06:49.646Z,18.93
2023-03-03T21:09:39.010Z,22.77
2023-03-03T21:12:29.889Z,22.00
2023-03-03T21:15:05.509Z,19.70
2023-03-03T21:17:32.463Z,21.80
2023-03-03T21:20:33.986Z,22.77
2023-03-03T21:23:03.002Z,21.43
2023-03-03T21:25:40.413Z,21.43
2023-03-03T21:28:29.716Z,22.47
2023-03-03T21:31:05.531Z,19.97
2023-03-03T21:33:54.368Z,20.17
2023-03-03T21:36:36.010Z,20.80
2023-03-03T21:39:28.985Z,23.10
2023-03-03T21:42:09.092Z,22.30
2023-03-03T21:44:54.838Z,20.50
2023-03-03T21:47:27.777Z,21.90
2023-03-03T21:49:54.981Z,22.67
2023-03-03T21:52:22.909Z,21.50
2023-03-03T21:54:51.372Z,24.57
2023-03-03T21:57:18.949Z,21.53
2023-03-03T21:59:46.168Z,21.47
2023-03-03T22:02:13.466Z,21.50
2023-03-03T22:04:41.236Z,20.13
2023-03-03T22:07:11.339Z,22.17
2023-03-03T22:09:38.536Z,20.60
2023-03-03T22:12:06.895Z,20.57
2023-03-03T22:14:34.234Z,19.50
2023-03-03T22:17:01.464Z,18.40
2023-03-03T22:19:29.575Z,18.53
2023-03-03T22:21:56.464Z,18.20
2023-03-03T22:24:23.369Z,19.27
2023-03-03T22:26:50.457Z,18.83
2023-03-03T22:29:22.696Z,19.63
2023-03-03T22:31:50.424Z,19.67
2023-03-03T22:34:19.990Z,17.13
2023-03-03T22:36:46.877Z,19.50
2023-03-03T22:39:16.668Z,20.97
2023-03-03T22:41:44.694Z,18.20
2023-03-03T22:44:12.510Z,19.13
2023-03-03T22:46:39.724Z,18.10
2023-03-03T22:49:12.582Z,18.70
2023-03-03T22:51:39.544Z,15.77
2023-03-03T22:54:06.762Z,16.23
2023-03-03T22:56:33.771Z,15.53
2023-03-03T22:59:00.776Z,14.73
2023-03-03T23:01:27.981Z,16.00
2023-03-03T23:03:55.175Z,15.87
2023-03-03T23:06:24.003Z,17.73
2023-03-03T23:08:50.764Z,17.93
2023-03-03T23:11:17.614Z,17.27
2023-03-03T23:13:44.621Z,18.80
2023-03-03T23:16:12.718Z,17.63
2023-03-03T23:18:39.811Z,17.33
2023-03-03T23:21:06.563Z,17.50
2023-03-03T23:23:33.694Z,16.17
2023-03-03T23:26:01.051Z,15.53
2023-03-03T23:28:27.782Z,16.30
2023-03-03T23:30:54.617Z,13.90
2023-03-03T23:33:21.555Z,17.03
2023-03-03T23:35:49.972Z,16.93
2023-03-03T23:38:17.949Z,16.73
2023-03-03T23:40:48.953Z,16.57
2023-03-03T23:43:15.813Z,18.30
2023-03-03T23:45:42.839Z,15.90
2023-03-03T23:48:10.066Z,16.90
2023-03-03T23:50:38.029Z,17.17
2023-03-03T23:53:08.057Z,17.50
2023-03-03T23:55:36.281Z,17.87
2023-03-03T23:58:04.092Z,19.03
